sensor_id;sensor_type;location;lat;lon;timestamp;P1;durP1;ratioP1;P2;durP2;ratioP2
71715;SDS011;59568;52.128;5.434;2023-08-07T00:00:53;4.50;;;0.60;;
71715;SDS011;59568;52.128;5.434;2023-08-07T00:03:35;4.85;;;0.60;;
71715;SDS011;59568;52.128;5.434;2023-08-07T00:06:23;3.03;;;0.50;;
71715;SDS011;59568;52.128;5.434;2023-08-07T00:09:04;6.43;;;0.70;;
71715;SDS011;59568;52.128;5.434;2023-08-07T00:11:34;4.93;;;0.40;;
71715;SDS011;59568;52.128;5.434;2023-08-07T00:14:14;9.47;;;0.73;;
71715;SDS011;59568;52.128;5.434;2023-08-07T00:17:09;2.47;;;0.32;;
71715;SDS011;59568;52.128;5.434;2023-08-07T00:19:50;9.57;;;0.93;;
71715;SDS011;59568;52.128;5.434;2023-08-07T00:22:31;3.97;;;0.30;;
71715;SDS011;59568;52.128;5.434;2023-08-07T00:25:13;5.72;;;0.55;;
71715;SDS011;59568;52.128;5.434;2023-08-07T00:27:54;5.67;;;0.50;;
71715;SDS011;59568;52.128;5.434;2023-08-07T00:30:28;7.47;;;0.70;;
71715;SDS011;59568;52.128;5.434;2023-08-07T00:33:09;5.95;;;0.80;;
71715;SDS011;59568;52.128;5.434;2023-08-07T00:36:02;4.82;;;0.47;;
71715;SDS011;59568;52.128;5.434;2023-08-07T00:38:43;5.05;;;0.70;;
71715;SDS011;59568;52.128;5.434;2023-08-07T00:41:12;3.67;;;0.50;;
71715;SDS011;59568;52.128;5.434;2023-08-07T00:43:41;4.50;;;0.70;;
71715;SDS011;59568;52.128;5.434;2023-08-07T00:46:22;2.83;;;0.50;;
71715;SDS011;59568;52.128;5.434;2023-08-07T00:49:05;4.93;;;0.47;;
71715;SDS011;59568;52.128;5.434;2023-08-07T00:51:50;5.90;;;0.68;;
71715;SDS011;59568;52.128;5.434;2023-08-07T00:54:34;6.13;;;0.87;;
71715;SDS011;59568;52.128;5.434;2023-08-07T00:57:14;5.22;;;0.80;;
71715;SDS011;59568;52.128;5.434;2023-08-07T01:00:02;5.45;;;0.70;;
71715;SDS011;59568;52.128;5.434;2023-08-07T01:02:44;5.63;;;0.82;;
71715;SDS011;59568;52.128;5.434;2023-08-07T01:05:28;7.20;;;0.70;;
71715;SDS011;59568;52.128;5.434;2023-08-07T01:08:11;8.30;;;1.07;;
71715;SDS011;59568;52.128;5.434;2023-08-07T01:13:54;8.25;;;0.93;;
71715;SDS011;59568;52.128;5.434;2023-08-07T01:17:11;5.65;;;0.93;;
71715;SDS011;59568;52.128;5.434;2023-08-07T01:20:01;9.35;;;1.23;;
71715;SDS011;59568;52.128;5.434;2023-08-07T01:22:44;8.03;;;1.03;;
71715;SDS011;59568;52.128;5.434;2023-08-07T01:25:29;7.03;;;1.08;;
71715;SDS011;59568;52.128;5.434;2023-08-07T01:28:32;6.97;;;1.13;;
71715;SDS011;59568;52.128;5.434;2023-08-07T01:31:20;7.07;;;1.00;;
71715;SDS011;59568;52.128;5.434;2023-08-07T01:34:05;6.10;;;0.73;;
71715;SDS011;59568;52.128;5.434;2023-08-07T01:36:48;6.60;;;0.93;;
71715;SDS011;59568;52.128;5.434;2023-08-07T01:39:31;10.00;;;1.20;;
71715;SDS011;59568;52.128;5.434;2023-08-07T01:42:21;5.80;;;1.23;;
71715;SDS011;59568;52.128;5.434;2023-08-07T01:45:05;7.35;;;0.80;;
71715;SDS011;59568;52.128;5.434;2023-08-07T01:47:46;9.48;;;0.95;;
71715;SDS011;59568;52.128;5.434;2023-08-07T01:50:15;8.23;;;1.17;;
71715;SDS011;59568;52.128;5.434;2023-08-07T01:52:57;9.80;;;0.98;;
71715;SDS011;59568;52.128;5.434;2023-08-07T01:55:32;4.05;;;1.15;;
71715;SDS011;59568;52.128;5.434;2023-08-07T01:58:07;12.93;;;2.05;;
71715;SDS011;59568;52.128;5.434;2023-08-07T02:00:47;5.97;;;1.27;;
71715;SDS011;59568;52.128;5.434;2023-08-07T02:03:31;6.80;;;1.00;;
71715;SDS011;59568;52.128;5.434;2023-08-07T02:06:00;6.38;;;0.77;;
71715;SDS011;59568;52.128;5.434;2023-08-07T02:08:44;7.40;;;1.02;;
71715;SDS011;59568;52.128;5.434;2023-08-07T02:11:26;7.57;;;0.80;;
71715;SDS011;59568;52.128;5.434;2023-08-07T02:14:08;7.13;;;1.13;;
71715;SDS011;59568;52.128;5.434;2023-08-07T02:16:51;10.30;;;1.50;;
71715;SDS011;59568;52.128;5.434;2023-08-07T02:19:35;5.80;;;1.60;;
71715;SDS011;59568;52.128;5.434;2023-08-07T02:22:16;3.58;;;0.93;;
71715;SDS011;59568;52.128;5.434;2023-08-07T02:24:57;5.03;;;0.93;;
71715;SDS011;59568;52.128;5.434;2023-08-07T02:27:41;9.00;;;1.30;;
71715;SDS011;59568;52.128;5.434;2023-08-07T02:30:22;6.70;;;0.93;;
71715;SDS011;59568;52.128;5.434;2023-08-07T02:33:04;7.38;;;1.10;;
71715;SDS011;59568;52.128;5.434;2023-08-07T02:35:38;14.20;;;1.25;;
71715;SDS011;59568;52.128;5.434;2023-08-07T02:38:20;6.57;;;1.48;;
71715;SDS011;59568;52.128;5.434;2023-08-07T02:41:02;5.95;;;1.13;;
71715;SDS011;59568;52.128;5.434;2023-08-07T02:43:45;4.10;;;0.90;;
71715;SDS011;59568;52.128;5.434;2023-08-07T02:46:27;6.20;;;0.80;;
71715;SDS011;59568;52.128;5.434;2023-08-07T02:49:08;9.45;;;0.82;;
71715;SDS011;59568;52.128;5.434;2023-08-07T02:52:06;6.07;;;1.27;;
71715;SDS011;59568;52.128;5.434;2023-08-07T02:54:50;9.98;;;1.05;;
71715;SDS011;59568;52.128;5.434;2023-08-07T02:57:24;12.37;;;1.20;;
71715;SDS011;59568;52.128;5.434;2023-08-07T03:00:06;8.93;;;1.08;;
71715;SDS011;59568;52.128;5.434;2023-08-07T03:02:47;8.70;;;1.33;;
71715;SDS011;59568;52.128;5.434;2023-08-07T03:05:29;7.60;;;0.93;;
71715;SDS011;59568;52.128;5.434;2023-08-07T03:08:10;7.88;;;1.17;;
71715;SDS011;59568;52.128;5.434;2023-08-07T03:10:53;11.00;;;1.40;;
71715;SDS011;59568;52.128;5.434;2023-08-07T03:13:36;5.45;;;1.30;;
71715;SDS011;59568;52.128;5.434;2023-08-07T03:16:16;8.52;;;0.80;;
71715;SDS011;59568;52.128;5.434;2023-08-07T03:18:57;4.85;;;0.82;;
71715;SDS011;59568;52.128;5.434;2023-08-07T03:21:52;7.13;;;1.20;;
71715;SDS011;59568;52.128;5.434;2023-08-07T03:24:19;5.07;;;0.70;;
71715;SDS011;59568;52.128;5.434;2023-08-07T03:26:49;5.35;;;0.60;;
71715;SDS011;59568;52.128;5.434;2023-08-07T03:29:16;4.78;;;0.60;;
71715;SDS011;59568;52.128;5.434;2023-08-07T03:31:50;4.80;;;0.50;;
71715;SDS011;59568;52.128;5.434;2023-08-07T03:34:31;5.47;;;0.50;;
71715;SDS011;59568;52.128;5.434;2023-08-07T03:37:00;6.80;;;0.60;;
71715;SDS011;59568;52.128;5.434;2023-08-07T03:39:26;6.25;;;0.80;;
71715;SDS011;59568;52.128;5.434;2023-08-07T03:41:53;3.72;;;0.50;;
71715;SDS011;59568;52.128;5.434;2023-08-07T03:44:20;4.50;;;0.60;;
71715;SDS011;59568;52.128;5.434;2023-08-07T03:46:48;7.03;;;0.90;;
71715;SDS011;59568;52.128;5.434;2023-08-07T03:49:15;4.77;;;0.50;;
71715;SDS011;59568;52.128;5.434;2023-08-07T03:51:44;3.67;;;1.00;;
71715;SDS011;59568;52.128;5.434;2023-08-07T03:54:11;5.63;;;0.68;;
71715;SDS011;59568;52.128;5.434;2023-08-07T03:56:54;5.38;;;0.65;;
71715;SDS011;59568;52.128;5.434;2023-08-07T03:59:23;6.22;;;0.60;;
71715;SDS011;59568;52.128;5.434;2023-08-07T04:01:50;7.57;;;0.80;;
71715;SDS011;59568;52.128;5.434;2023-08-07T04:04:35;4.50;;;0.75;;
71715;SDS011;59568;52.128;5.434;2023-08-07T04:07:09;6.50;;;0.60;;
71715;SDS011;59568;52.128;5.434;2023-08-07T04:09:36;5.10;;;0.85;;
71715;SDS011;59568;52.128;5.434;2023-08-07T04:12:04;6.97;;;0.77;;
71715;SDS011;59568;52.128;5.434;2023-08-07T04:14:31;7.97;;;0.83;;
71715;SDS011;59568;52.128;5.434;2023-08-07T04:17:12;6.45;;;0.55;;
71715;SDS011;59568;52.128;5.434;2023-08-07T04:19:41;5.80;;;0.70;;
71715;SDS011;59568;52.128;5.434;2023-08-07T04:22:08;7.95;;;0.70;;
71715;SDS011;59568;52.128;5.434;2023-08-07T04:24:38;6.88;;;1.42;;
71715;SDS011;59568;52.128;5.434;2023-08-07T04:27:05;5.87;;;0.70;;
71715;SDS011;59568;52.128;5.434;2023-08-07T04:29:34;6.28;;;0.68;;
71715;SDS011;59568;52.128;5.434;2023-08-07T04:32:01;7.63;;;1.20;;
71715;SDS011;59568;52.128;5.434;2023-08-07T04:34:30;8.25;;;0.70;;
71715;SDS011;59568;52.128;5.434;2023-08-07T04:36:57;11.25;;;1.38;;
71715;SDS011;59568;52.128;5.434;2023-08-07T04:39:27;7.00;;;0.80;;
71715;SDS011;59568;52.128;5.434;2023-08-07T04:41:55;10.40;;;1.00;;
71715;SDS011;59568;52.128;5.434;2023-08-07T04:44:36;8.82;;;1.75;;
71715;SDS011;59568;52.128;5.434;2023-08-07T04:47:03;8.07;;;0.90;;
71715;SDS011;59568;52.128;5.434;2023-08-07T04:49:33;7.22;;;1.35;;
71715;SDS011;59568;52.128;5.434;2023-08-07T04:52:00;13.87;;;1.00;;
71715;SDS011;59568;52.128;5.434;2023-08-07T04:54:46;7.13;;;0.85;;
71715;SDS011;59568;52.128;5.434;2023-08-07T04:57:15;5.40;;;0.77;;
71715;SDS011;59568;52.128;5.434;2023-08-07T04:59:46;8.20;;;0.95;;
71715;SDS011;59568;52.128;5.434;2023-08-07T05:02:12;7.68;;;0.90;;
71715;SDS011;59568;52.128;5.434;2023-08-07T05:04:39;3.47;;;0.90;;
71715;SDS011;59568;52.128;5.434;2023-08-07T05:07:06;5.85;;;0.90;;
71715;SDS011;59568;52.128;5.434;2023-08-07T05:09:34;10.73;;;1.23;;
71715;SDS011;59568;52.128;5.434;2023-08-07T05:12:01;6.30;;;0.88;;
71715;SDS011;59568;52.128;5.434;2023-08-07T05:14:29;10.02;;;1.17;;
71715;SDS011;59568;52.128;5.434;2023-08-07T05:16:56;10.53;;;1.00;;
71715;SDS011;59568;52.128;5.434;2023-08-07T05:19:27;6.90;;;0.88;;
71715;SDS011;59568;52.128;5.434;2023-08-07T05:21:53;6.22;;;0.90;;
71715;SDS011;59568;52.128;5.434;2023-08-07T05:24:21;7.07;;;0.80;;
71715;SDS011;59568;52.128;5.434;2023-08-07T05:26:47;3.10;;;0.95;;
71715;SDS011;59568;52.128;5.434;2023-08-07T05:29:14;7.03;;;1.17;;
71715;SDS011;59568;52.128;5.434;2023-08-07T05:31:41;9.65;;;0.80;;
71715;SDS011;59568;52.128;5.434;2023-08-07T05:34:08;6.60;;;0.93;;
71715;SDS011;59568;52.128;5.434;2023-08-07T05:36:34;8.50;;;0.90;;
71715;SDS011;59568;52.128;5.434;2023-08-07T05:39:01;7.00;;;0.90;;
71715;SDS011;59568;52.128;5.434;2023-08-07T05:41:38;6.77;;;0.70;;
71715;SDS011;59568;52.128;5.434;2023-08-07T05:44:06;8.90;;;0.90;;
71715;SDS011;59568;52.128;5.434;2023-08-07T05:46:32;8.68;;;1.02;;
71715;SDS011;59568;52.128;5.434;2023-08-07T05:48:59;6.97;;;1.10;;
71715;SDS011;59568;52.128;5.434;2023-08-07T05:51:26;5.28;;;1.10;;
71715;SDS011;59568;52.128;5.434;2023-08-07T05:53:53;8.60;;;0.87;;
71715;SDS011;59568;52.128;5.434;2023-08-07T05:56:20;6.85;;;1.00;;
71715;SDS011;59568;52.128;5.434;2023-08-07T05:58:47;8.57;;;1.40;;
71715;SDS011;59568;52.128;5.434;2023-08-07T06:01:13;5.22;;;1.20;;
71715;SDS011;59568;52.128;5.434;2023-08-07T06:03:43;6.15;;;1.08;;
71715;SDS011;59568;52.128;5.434;2023-08-07T06:06:10;6.10;;;1.57;;
71715;SDS011;59568;52.128;5.434;2023-08-07T06:08:37;8.35;;;1.05;;
71715;SDS011;59568;52.128;5.434;2023-08-07T06:11:07;6.55;;;1.23;;
71715;SDS011;59568;52.128;5.434;2023-08-07T06:13:39;7.30;;;1.08;;
71715;SDS011;59568;52.128;5.434;2023-08-07T06:16:07;7.43;;;1.20;;
71715;SDS011;59568;52.128;5.434;2023-08-07T06:18:35;6.20;;;1.30;;
71715;SDS011;59568;52.128;5.434;2023-08-07T06:21:08;9.82;;;1.60;;
71715;SDS011;59568;52.128;5.434;2023-08-07T06:23:37;8.95;;;1.13;;
71715;SDS011;59568;52.128;5.434;2023-08-07T06:26:05;7.70;;;1.13;;
71715;SDS011;59568;52.128;5.434;2023-08-07T06:28:48;6.07;;;1.17;;
71715;SDS011;59568;52.128;5.434;2023-08-07T06:31:22;7.97;;;1.13;;
71715;SDS011;59568;52.128;5.434;2023-08-07T06:34:03;7.82;;;1.17;;
71715;SDS011;59568;52.128;5.434;2023-08-07T06:36:39;7.55;;;1.30;;
71715;SDS011;59568;52.128;5.434;2023-08-07T06:39:09;9.98;;;1.10;;
71715;SDS011;59568;52.128;5.434;2023-08-07T06:41:42;4.07;;;1.20;;
71715;SDS011;59568;52.128;5.434;2023-08-07T06:44:21;6.73;;;1.70;;
71715;SDS011;59568;52.128;5.434;2023-08-07T06:47:06;8.15;;;2.38;;
71715;SDS011;59568;52.128;5.434;2023-08-07T06:49:36;9.05;;;1.08;;
71715;SDS011;59568;52.128;5.434;2023-08-07T06:52:04;10.88;;;1.30;;
71715;SDS011;59568;52.128;5.434;2023-08-07T06:54:33;9.43;;;1.70;;
71715;SDS011;59568;52.128;5.434;2023-08-07T06:57:01;9.90;;;1.50;;
71715;SDS011;59568;52.128;5.434;2023-08-07T06:59:28;7.68;;;1.90;;
71715;SDS011;59568;52.128;5.434;2023-08-07T07:01:54;11.30;;;1.80;;
71715;SDS011;59568;52.128;5.434;2023-08-07T07:04:24;10.27;;;1.42;;
71715;SDS011;59568;52.128;5.434;2023-08-07T07:10:07;14.23;;;1.90;;
71715;SDS011;59568;52.128;5.434;2023-08-07T07:13:12;8.60;;;1.88;;
71715;SDS011;59568;52.128;5.434;2023-08-07T07:15:38;6.35;;;1.15;;
71715;SDS011;59568;52.128;5.434;2023-08-07T07:18:13;5.13;;;1.20;;
71715;SDS011;59568;52.128;5.434;2023-08-07T07:20:41;7.40;;;1.23;;
71715;SDS011;59568;52.128;5.434;2023-08-07T07:23:16;8.40;;;1.30;;
71715;SDS011;59568;52.128;5.434;2023-08-07T07:25:44;5.90;;;1.58;;
71715;SDS011;59568;52.128;5.434;2023-08-07T07:28:25;10.05;;;2.13;;
71715;SDS011;59568;52.128;5.434;2023-08-07T07:31:15;10.88;;;1.80;;
71715;SDS011;59568;52.128;5.434;2023-08-07T07:34:13;11.43;;;1.50;;
71715;SDS011;59568;52.128;5.434;2023-08-07T07:37:09;13.23;;;1.90;;
71715;SDS011;59568;52.128;5.434;2023-08-07T07:40:03;6.68;;;1.92;;
71715;SDS011;59568;52.128;5.434;2023-08-07T07:42:35;9.07;;;1.92;;
71715;SDS011;59568;52.128;5.434;2023-08-07T07:45:16;10.70;;;2.38;;
71715;SDS011;59568;52.128;5.434;2023-08-07T07:47:54;4.72;;;1.30;;
71715;SDS011;59568;52.128;5.434;2023-08-07T07:50:21;8.63;;;1.93;;
71715;SDS011;59568;52.128;5.434;2023-08-07T07:52:51;8.18;;;2.15;;
71715;SDS011;59568;52.128;5.434;2023-08-07T07:55:18;8.32;;;1.38;;
71715;SDS011;59568;52.128;5.434;2023-08-07T07:57:45;7.72;;;1.27;;
71715;SDS011;59568;52.128;5.434;2023-08-07T08:00:14;6.60;;;1.27;;
71715;SDS011;59568;52.128;5.434;2023-08-07T08:02:41;5.50;;;1.47;;
71715;SDS011;59568;52.128;5.434;2023-08-07T08:05:09;10.60;;;1.50;;
71715;SDS011;59568;52.128;5.434;2023-08-07T08:07:39;10.77;;;1.40;;
71715;SDS011;59568;52.128;5.434;2023-08-07T08:10:07;8.77;;;1.48;;
71715;SDS011;59568;52.128;5.434;2023-08-07T08:12:35;7.40;;;1.50;;
71715;SDS011;59568;52.128;5.434;2023-08-07T08:15:03;10.03;;;1.73;;
71715;SDS011;59568;52.128;5.434;2023-08-07T08:17:44;9.05;;;2.15;;
71715;SDS011;59568;52.128;5.434;2023-08-07T08:20:11;5.57;;;1.45;;
71715;SDS011;59568;52.128;5.434;2023-08-07T08:22:42;9.05;;;1.90;;
71715;SDS011;59568;52.128;5.434;2023-08-07T08:25:08;6.60;;;1.63;;
71715;SDS011;59568;52.128;5.434;2023-08-07T08:27:36;9.67;;;1.47;;
71715;SDS011;59568;52.128;5.434;2023-08-07T08:30:09;11.05;;;1.92;;
71715;SDS011;59568;52.128;5.434;2023-08-07T08:32:38;7.47;;;1.13;;
71715;SDS011;59568;52.128;5.434;2023-08-07T08:35:25;12.70;;;1.40;;
71715;SDS011;59568;52.128;5.434;2023-08-07T08:37:53;7.82;;;1.90;;
71715;SDS011;59568;52.128;5.434;2023-08-07T08:40:19;7.97;;;1.37;;
71715;SDS011;59568;52.128;5.434;2023-08-07T08:42:47;9.07;;;1.33;;
71715;SDS011;59568;52.128;5.434;2023-08-07T08:45:14;5.65;;;1.15;;
71715;SDS011;59568;52.128;5.434;2023-08-07T08:47:42;8.98;;;1.80;;
71715;SDS011;59568;52.128;5.434;2023-08-07T08:50:13;10.68;;;1.63;;
71715;SDS011;59568;52.128;5.434;2023-08-07T08:52:43;4.97;;;1.00;;
71715;SDS011;59568;52.128;5.434;2023-08-07T08:55:11;9.45;;;1.10;;
71715;SDS011;59568;52.128;5.434;2023-08-07T08:57:39;7.30;;;1.42;;
71715;SDS011;59568;52.128;5.434;2023-08-07T09:00:07;6.75;;;1.42;;
71715;SDS011;59568;52.128;5.434;2023-08-07T09:02:47;6.60;;;1.17;;
71715;SDS011;59568;52.128;5.434;2023-08-07T09:05:15;4.43;;;1.30;;
71715;SDS011;59568;52.128;5.434;2023-08-07T09:07:43;7.97;;;1.45;;
71715;SDS011;59568;52.128;5.434;2023-08-07T09:10:13;9.20;;;1.80;;
71715;SDS011;59568;52.128;5.434;2023-08-07T09:12:41;5.85;;;1.00;;
71715;SDS011;59568;52.128;5.434;2023-08-07T09:15:11;7.82;;;1.40;;
71715;SDS011;59568;52.128;5.434;2023-08-07T09:17:42;8.87;;;1.63;;
71715;SDS011;59568;52.128;5.434;2023-08-07T09:20:11;7.75;;;1.20;;
71715;SDS011;59568;52.128;5.434;2023-08-07T09:22:40;5.32;;;1.13;;
71715;SDS011;59568;52.128;5.434;2023-08-07T09:25:08;6.43;;;1.25;;
71715;SDS011;59568;52.128;5.434;2023-08-07T09:27:39;6.88;;;1.10;;
71715;SDS011;59568;52.128;5.434;2023-08-07T09:30:06;7.17;;;2.10;;
71715;SDS011;59568;52.128;5.434;2023-08-07T09:32:36;4.55;;;0.95;;
71715;SDS011;59568;52.128;5.434;2023-08-07T09:35:03;7.18;;;1.23;;
71715;SDS011;59568;52.128;5.434;2023-08-07T09:37:33;9.70;;;1.17;;
71715;SDS011;59568;52.128;5.434;2023-08-07T09:40:02;6.03;;;1.10;;
71715;SDS011;59568;52.128;5.434;2023-08-07T09:42:32;5.37;;;0.93;;
71715;SDS011;59568;52.128;5.434;2023-08-07T09:45:01;7.38;;;1.45;;
71715;SDS011;59568;52.128;5.434;2023-08-07T09:47:29;10.70;;;1.25;;
71715;SDS011;59568;52.128;5.434;2023-08-07T09:49:56;10.20;;;1.42;;
71715;SDS011;59568;52.128;5.434;2023-08-07T09:52:23;8.48;;;1.77;;
71715;SDS011;59568;52.128;5.434;2023-08-07T09:54:50;5.60;;;1.20;;
71715;SDS011;59568;52.128;5.434;2023-08-07T09:57:17;8.98;;;1.30;;
71715;SDS011;59568;52.128;5.434;2023-08-07T09:59:44;6.32;;;1.50;;
71715;SDS011;59568;52.128;5.434;2023-08-07T10:02:16;6.80;;;1.20;;
71715;SDS011;59568;52.128;5.434;2023-08-07T10:04:43;6.25;;;1.15;;
71715;SDS011;59568;52.128;5.434;2023-08-07T10:07:10;9.07;;;1.10;;
71715;SDS011;59568;52.128;5.434;2023-08-07T10:09:41;4.57;;;1.20;;
71715;SDS011;59568;52.128;5.434;2023-08-07T10:12:08;4.82;;;1.10;;
71715;SDS011;59568;52.128;5.434;2023-08-07T10:14:36;5.40;;;1.05;;
71715;SDS011;59568;52.128;5.434;2023-08-07T10:17:02;3.42;;;1.10;;
71715;SDS011;59568;52.128;5.434;2023-08-07T10:19:30;8.23;;;1.10;;
71715;SDS011;59568;52.128;5.434;2023-08-07T10:21:57;5.30;;;1.25;;
71715;SDS011;59568;52.128;5.434;2023-08-07T10:24:24;4.43;;;1.15;;
71715;SDS011;59568;52.128;5.434;2023-08-07T10:26:52;6.68;;;1.00;;
71715;SDS011;59568;52.128;5.434;2023-08-07T10:29:21;3.30;;;1.10;;
71715;SDS011;59568;52.128;5.434;2023-08-07T10:31:50;7.63;;;1.00;;
71715;SDS011;59568;52.128;5.434;2023-08-07T10:34:19;7.15;;;1.17;;
71715;SDS011;59568;52.128;5.434;2023-08-07T10:36:45;4.88;;;1.00;;
71715;SDS011;59568;52.128;5.434;2023-08-07T10:39:15;4.00;;;1.00;;
71715;SDS011;59568;52.128;5.434;2023-08-07T10:41:44;6.60;;;0.98;;
71715;SDS011;59568;52.128;5.434;2023-08-07T10:44:22;8.87;;;1.33;;
71715;SDS011;59568;52.128;5.434;2023-08-07T10:46:53;6.35;;;1.10;;
71715;SDS011;59568;52.128;5.434;2023-08-07T10:49:38;5.15;;;0.98;;
71715;SDS011;59568;52.128;5.434;2023-08-07T10:52:16;5.78;;;0.98;;
71715;SDS011;59568;52.128;5.434;2023-08-07T10:54:48;5.20;;;1.00;;
71715;SDS011;59568;52.128;5.434;2023-08-07T10:57:18;5.60;;;1.00;;
71715;SDS011;59568;52.128;5.434;2023-08-07T11:02:31;5.22;;;0.90;;
71715;SDS011;59568;52.128;5.434;2023-08-07T11:05:14;8.52;;;0.90;;
71715;SDS011;59568;52.128;5.434;2023-08-07T11:07:41;5.65;;;0.80;;
71715;SDS011;59568;52.128;5.434;2023-08-07T11:10:13;8.20;;;1.00;;
71715;SDS011;59568;52.128;5.434;2023-08-07T11:12:43;5.15;;;1.23;;
71715;SDS011;59568;52.128;5.434;2023-08-07T11:15:24;7.15;;;0.80;;
71715;SDS011;59568;52.128;5.434;2023-08-07T11:17:51;5.68;;;0.98;;
71715;SDS011;59568;52.128;5.434;2023-08-07T11:20:21;5.68;;;0.85;;
71715;SDS011;59568;52.128;5.434;2023-08-07T11:22:48;3.67;;;0.80;;
71715;SDS011;59568;52.128;5.434;2023-08-07T11:25:14;6.97;;;0.85;;
71715;SDS011;59568;52.128;5.434;2023-08-07T11:27:43;4.22;;;0.80;;
71715;SDS011;59568;52.128;5.434;2023-08-07T11:30:10;7.25;;;1.08;;
71715;SDS011;59568;52.128;5.434;2023-08-07T11:32:42;5.20;;;0.90;;
71715;SDS011;59568;52.128;5.434;2023-08-07T11:35:13;3.67;;;0.90;;
71715;SDS011;59568;52.128;5.434;2023-08-07T11:37:46;7.03;;;0.75;;
71715;SDS011;59568;52.128;5.434;2023-08-07T11:40:14;7.80;;;0.85;;
71715;SDS011;59568;52.128;5.434;2023-08-07T11:42:40;6.40;;;1.00;;
71715;SDS011;59568;52.128;5.434;2023-08-07T11:45:10;4.38;;;0.70;;
71715;SDS011;59568;52.128;5.434;2023-08-07T11:47:37;5.77;;;0.87;;
71715;SDS011;59568;52.128;5.434;2023-08-07T11:50:07;5.05;;;1.15;;
71715;SDS011;59568;52.128;5.434;2023-08-07T11:52:41;5.63;;;0.80;;
71715;SDS011;59568;52.128;5.434;2023-08-07T11:55:23;4.60;;;0.90;;
71715;SDS011;59568;52.128;5.434;2023-08-07T11:57:50;4.22;;;0.80;;
71715;SDS011;59568;52.128;5.434;2023-08-07T12:00:16;6.13;;;0.87;;
71715;SDS011;59568;52.128;5.434;2023-08-07T12:02:44;7.22;;;0.75;;
71715;SDS011;59568;52.128;5.434;2023-08-07T12:05:11;4.47;;;2.08;;
71715;SDS011;59568;52.128;5.434;2023-08-07T12:07:38;4.50;;;0.93;;
71715;SDS011;59568;52.128;5.434;2023-08-07T12:10:09;5.85;;;1.05;;
71715;SDS011;59568;52.128;5.434;2023-08-07T12:12:37;4.33;;;0.87;;
71715;SDS011;59568;52.128;5.434;2023-08-07T12:15:07;5.25;;;0.80;;
71715;SDS011;59568;52.128;5.434;2023-08-07T12:17:35;3.38;;;0.65;;
71715;SDS011;59568;52.128;5.434;2023-08-07T12:20:05;5.97;;;0.70;;
71715;SDS011;59568;52.128;5.434;2023-08-07T12:22:36;4.07;;;0.73;;
71715;SDS011;59568;52.128;5.434;2023-08-07T12:25:05;5.47;;;0.80;;
71715;SDS011;59568;52.128;5.434;2023-08-07T12:27:34;3.75;;;0.88;;
71715;SDS011;59568;52.128;5.434;2023-08-07T12:30:00;5.63;;;0.63;;
71715;SDS011;59568;52.128;5.434;2023-08-07T12:32:27;6.90;;;0.75;;
71715;SDS011;59568;52.128;5.434;2023-08-07T12:34:57;6.20;;;1.42;;
71715;SDS011;59568;52.128;5.434;2023-08-07T12:37:30;2.07;;;0.67;;
71715;SDS011;59568;52.128;5.434;2023-08-07T12:39:57;4.80;;;0.90;;
71715;SDS011;59568;52.128;5.434;2023-08-07T12:42:44;3.20;;;0.70;;
71715;SDS011;59568;52.128;5.434;2023-08-07T12:45:10;3.10;;;0.50;;
71715;SDS011;59568;52.128;5.434;2023-08-07T12:47:38;6.57;;;1.08;;
71715;SDS011;59568;52.128;5.434;2023-08-07T12:50:05;3.07;;;0.60;;
71715;SDS011;59568;52.128;5.434;2023-08-07T12:52:32;4.03;;;0.50;;
71715;SDS011;59568;52.128;5.434;2023-08-07T12:54:59;3.03;;;0.50;;
71715;SDS011;59568;52.128;5.434;2023-08-07T12:57:26;2.50;;;0.47;;
71715;SDS011;59568;52.128;5.434;2023-08-07T12:59:55;4.15;;;0.40;;
71715;SDS011;59568;52.128;5.434;2023-08-07T13:02:22;3.37;;;0.40;;
71715;SDS011;59568;52.128;5.434;2023-08-07T13:04:49;3.55;;;0.60;;
71715;SDS011;59568;52.128;5.434;2023-08-07T13:07:17;4.15;;;0.80;;
71715;SDS011;59568;52.128;5.434;2023-08-07T14:32:28;3.60;;;0.77;;
71715;SDS011;59568;52.128;5.434;2023-08-07T14:34:55;3.75;;;0.60;;
71715;SDS011;59568;52.128;5.434;2023-08-07T14:37:22;3.08;;;0.75;;
71715;SDS011;59568;52.128;5.434;2023-08-07T14:39:49;2.85;;;0.50;;
71715;SDS011;59568;52.128;5.434;2023-08-07T14:42:16;3.45;;;0.70;;
71715;SDS011;59568;52.128;5.434;2023-08-07T14:44:43;5.97;;;0.80;;
71715;SDS011;59568;52.128;5.434;2023-08-07T14:47:10;3.50;;;0.60;;
71715;SDS011;59568;52.128;5.434;2023-08-07T14:49:36;2.75;;;0.85;;
71715;SDS011;59568;52.128;5.434;2023-08-07T14:52:03;3.00;;;0.82;;
71715;SDS011;59568;52.128;5.434;2023-08-07T14:54:30;2.78;;;0.70;;
71715;SDS011;59568;52.128;5.434;2023-08-07T14:56:57;5.93;;;0.70;;
71715;SDS011;59568;52.128;5.434;2023-08-07T14:59:25;3.38;;;0.70;;
71715;SDS011;59568;52.128;5.434;2023-08-07T15:01:51;4.05;;;0.90;;
71715;SDS011;59568;52.128;5.434;2023-08-07T15:04:18;2.58;;;0.70;;
71715;SDS011;59568;52.128;5.434;2023-08-07T15:06:45;2.65;;;0.70;;
71715;SDS011;59568;52.128;5.434;2023-08-07T15:09:16;3.88;;;0.77;;
71715;SDS011;59568;52.128;5.434;2023-08-07T15:11:46;2.22;;;0.70;;
71715;SDS011;59568;52.128;5.434;2023-08-07T15:14:13;2.78;;;0.70;;
71715;SDS011;59568;52.128;5.434;2023-08-07T15:16:41;5.47;;;1.00;;
71715;SDS011;59568;52.128;5.434;2023-08-07T15:19:09;2.42;;;0.55;;
71715;SDS011;59568;52.128;5.434;2023-08-07T15:21:36;7.57;;;1.00;;
71715;SDS011;59568;52.128;5.434;2023-08-07T15:24:07;3.50;;;0.70;;
71715;SDS011;59568;52.128;5.434;2023-08-07T15:26:35;3.63;;;0.60;;
71715;SDS011;59568;52.128;5.434;2023-08-07T15:29:05;3.05;;;0.80;;
71715;SDS011;59568;52.128;5.434;2023-08-07T15:31:32;5.13;;;0.80;;
71715;SDS011;59568;52.128;5.434;2023-08-07T15:33:59;3.17;;;0.68;;
71715;SDS011;59568;52.128;5.434;2023-08-07T15:36:26;2.00;;;0.55;;
71715;SDS011;59568;52.128;5.434;2023-08-07T15:38:53;4.97;;;0.85;;
71715;SDS011;59568;52.128;5.434;2023-08-07T15:41:20;3.25;;;1.00;;
71715;SDS011;59568;52.128;5.434;2023-08-07T15:43:47;3.22;;;0.70;;
71715;SDS011;59568;52.128;5.434;2023-08-07T15:46:17;2.63;;;0.80;;
71715;SDS011;59568;52.128;5.434;2023-08-07T15:48:45;2.15;;;1.17;;
71715;SDS011;59568;52.128;5.434;2023-08-07T15:51:12;4.47;;;0.70;;
71715;SDS011;59568;52.128;5.434;2023-08-07T15:53:39;2.80;;;0.60;;
71715;SDS011;59568;52.128;5.434;2023-08-07T15:56:05;2.30;;;0.70;;
71715;SDS011;59568;52.128;5.434;2023-08-07T15:58:32;2.90;;;0.30;;
71715;SDS011;59568;52.128;5.434;2023-08-07T16:00:59;1.83;;;0.60;;
71715;SDS011;59568;52.128;5.434;2023-08-07T16:03:26;1.65;;;0.70;;
71715;SDS011;59568;52.128;5.434;2023-08-07T16:05:53;2.38;;;0.73;;
71715;SDS011;59568;52.128;5.434;2023-08-07T16:08:20;4.82;;;0.88;;
71715;SDS011;59568;52.128;5.434;2023-08-07T16:10:47;3.95;;;0.65;;
71715;SDS011;59568;52.128;5.434;2023-08-07T16:13:14;3.83;;;0.60;;
71715;SDS011;59568;52.128;5.434;2023-08-07T16:15:40;1.75;;;0.50;;
71715;SDS011;59568;52.128;5.434;2023-08-07T16:18:10;3.92;;;0.50;;
71715;SDS011;59568;52.128;5.434;2023-08-07T16:20:37;4.55;;;0.80;;
71715;SDS011;59568;52.128;5.434;2023-08-07T16:23:04;1.33;;;0.53;;
71715;SDS011;59568;52.128;5.434;2023-08-07T16:25:31;2.08;;;0.60;;
71715;SDS011;59568;52.128;5.434;2023-08-07T16:28:02;1.70;;;0.60;;
71715;SDS011;59568;52.128;5.434;2023-08-07T16:30:31;3.58;;;1.42;;
71715;SDS011;59568;52.128;5.434;2023-08-07T16:32:58;2.38;;;0.70;;
71715;SDS011;59568;52.128;5.434;2023-08-07T16:35:33;1.37;;;0.60;;
71715;SDS011;59568;52.128;5.434;2023-08-07T16:38:00;2.60;;;0.70;;
71715;SDS011;59568;52.128;5.434;2023-08-07T16:40:26;2.20;;;0.80;;
71715;SDS011;59568;52.128;5.434;2023-08-07T16:42:53;2.33;;;0.68;;
71715;SDS011;59568;52.128;5.434;2023-08-07T16:45:29;2.70;;;0.85;;
71715;SDS011;59568;52.128;5.434;2023-08-07T16:47:56;2.30;;;0.50;;